sensor_id;sensor_type;location;lat;lon;timestamp;temperature;humidity
5011;DHT22;2524;54.364;10.072;2023-03-03T00:00:17;3.60;99.90
5011;DHT22;2524;54.364;10.072;2023-03-03T00:02:43;3.60;99.90
5011;DHT22;2524;54.364;10.072;2023-03-03T00:05:09;3.60;99.90
5011;DHT22;2524;54.364;10.072;2023-03-03T00:07:34;3.50;99.90
5011;DHT22;2524;54.364;10.072;2023-03-03T00:10:00;3.50;99.90
5011;DHT22;2524;54.364;10.072;2023-03-03T00:12:29;3.40;99.90
5011;DHT22;2524;54.364;10.072;2023-03-03T00:14:56;3.40;99.90
5011;DHT22;2524;54.364;10.072;2023-03-03T00:17:29;3.40;99.90
5011;DHT22;2524;54.364;10.072;2023-03-03T00:19:56;3.40;99.90
5011;DHT22;2524;54.364;10.072;2023-03-03T00:22:34;3.40;99.90
5011;DHT22;2524;54.364;10.072;2023-03-03T00:25:28;3.30;99.90
5011;DHT22;2524;54.364;10.072;2023-03-03T00:27:55;3.30;99.90
5011;DHT22;2524;54.364;10.072;2023-03-03T00:30:25;3.30;99.90
5011;DHT22;2524;54.364;10.072;2023-03-03T00:32:51;3.20;99.90
5011;DHT22;2524;54.364;10.072;2023-03-03T00:35:33;3.20;99.90
5011;DHT22;2524;54.364;10.072;2023-03-03T00:38:22;3.20;99.90
5011;DHT22;2524;54.364;10.072;2023-03-03T00:40:48;3.30;99.90
5011;DHT22;2524;54.364;10.072;2023-03-03T00:43:27;3.10;99.90
5011;DHT22;2524;54.364;10.072;2023-03-03T00:45:58;3.20;99.90
5011;DHT22;2524;54.364;10.072;2023-03-03T00:50:58;3.10;99.90
5011;DHT22;2524;54.364;10.072;2023-03-03T00:53:29;3.00;99.90
5011;DHT22;2524;54.364;10.072;2023-03-03T00:55:56;3.00;99.90
5011;DHT22;2524;54.364;10.072;2023-03-03T00:58:25;3.00;99.90
5011;DHT22;2524;54.364;10.072;2023-03-03T01:00:53;3.00;99.90
5011;DHT22;2524;54.364;10.072;2023-03-03T01:03:22;2.90;99.90
5011;DHT22;2524;54.364;10.072;2023-03-03T01:05:49;3.10;99.90
5011;DHT22;2524;54.364;10.072;2023-03-03T01:08:16;2.90;99.90
5011;DHT22;2524;54.364;10.072;2023-03-03T01:10:47;2.80;99.90
5011;DHT22;2524;54.364;10.072;2023-03-03T01:13:15;2.80;99.90
5011;DHT22;2524;54.364;10.072;2023-03-03T01:15:42;2.80;99.90
5011;DHT22;2524;54.364;10.072;2023-03-03T01:18:11;2.80;99.90
5011;DHT22;2524;54.364;10.072;2023-03-03T01:20:37;2.80;99.90
5011;DHT22;2524;54.364;10.072;2023-03-03T01:23:03;2.80;99.90
5011;DHT22;2524;54.364;10.072;2023-03-03T01:25:29;2.70;99.90
5011;DHT22;2524;54.364;10.072;2023-03-03T01:27:55;2.70;99.90
5011;DHT22;2524;54.364;10.072;2023-03-03T01:30:21;2.70;99.90
5011;DHT22;2524;54.364;10.072;2023-03-03T01:32:47;2.60;99.90
5011;DHT22;2524;54.364;10.072;2023-03-03T01:35:12;2.60;99.90
5011;DHT22;2524;54.364;10.072;2023-03-03T01:37:38;2.60;99.90
5011;DHT22;2524;54.364;10.072;2023-03-03T01:40:06;2.60;99.90
5011;DHT22;2524;54.364;10.072;2023-03-03T01:42:32;2.60;99.90
5011;DHT22;2524;54.364;10.072;2023-03-03T01:45:16;2.60;99.90
5011;DHT22;2524;54.364;10.072;2023-03-03T01:47:51;2.60;99.90
5011;DHT22;2524;54.364;10.072;2023-03-03T01:50:32;2.50;99.90
5011;DHT22;2524;54.364;10.072;2023-03-03T01:53:02;2.50;99.90
5011;DHT22;2524;54.364;10.072;2023-03-03T01:55:33;2.50;99.90
5011;DHT22;2524;54.364;10.072;2023-03-03T01:58:04;2.40;99.90
5011;DHT22;2524;54.364;10.072;2023-03-03T02:02:59;2.40;99.90
5011;DHT22;2524;54.364;10.072;2023-03-03T02:05:25;2.40;99.90
5011;DHT22;2524;54.364;10.072;2023-03-03T02:07:51;2.40;99.90
5011;DHT22;2524;54.364;10.072;2023-03-03T02:10:19;2.40;99.90
5011;DHT22;2524;54.364;10.072;2023-03-03T02:12:49;2.40;99.90
5011;DHT22;2524;54.364;10.072;2023-03-03T02:17:56;2.30;99.90
5011;DHT22;2524;54.364;10.072;2023-03-03T02:28:29;2.30;99.90
5011;DHT22;2524;54.364;10.072;2023-03-03T02:30:57;2.30;99.90
5011;DHT22;2524;54.364;10.072;2023-03-03T02:33:24;2.20;99.90
5011;DHT22;2524;54.364;10.072;2023-03-03T02:35:50;2.20;99.90
5011;DHT22;2524;54.364;10.072;2023-03-03T02:41:20;2.20;99.90
5011;DHT22;2524;54.364;10.072;2023-03-03T02:44:01;2.20;99.90
5011;DHT22;2524;54.364;10.072;2023-03-03T02:46:31;2.10;99.90
5011;DHT22;2524;54.364;10.072;2023-03-03T02:48:56;2.10;99.90
5011;DHT22;2524;54.364;10.072;2023-03-03T02:51:22;2.20;99.90
5011;DHT22;2524;54.364;10.072;2023-03-03T02:53:48;2.10;99.90
5011;DHT22;2524;54.364;10.072;2023-03-03T02:56:13;2.10;99.90
5011;DHT22;2524;54.364;10.072;2023-03-03T02:58:39;2.10;99.90
5011;DHT22;2524;54.364;10.072;2023-03-03T03:01:05;2.10;99.90
5011;DHT22;2524;54.364;10.072;2023-03-03T03:03:30;2.10;99.90
5011;DHT22;2524;54.364;10.072;2023-03-03T03:05:56;2.00;99.90
5011;DHT22;2524;54.364;10.072;2023-03-03T03:08:21;2.00;99.90
5011;DHT22;2524;54.364;10.072;2023-03-03T03:10:47;2.00;99.90
5011;DHT22;2524;54.364;10.072;2023-03-03T03:13:13;2.00;99.90
5011;DHT22;2524;54.364;10.072;2023-03-03T03:15:39;1.90;99.90
5011;DHT22;2524;54.364;10.072;2023-03-03T03:18:05;1.90;99.90
5011;DHT22;2524;54.364;10.072;2023-03-03T03:20:34;1.90;99.90
5011;DHT22;2524;54.364;10.072;2023-03-03T03:23:00;1.90;99.90
5011;DHT22;2524;54.364;10.072;2023-03-03T03:25:25;1.90;99.90
5011;DHT22;2524;54.364;10.072;2023-03-03T03:27:52;1.90;99.90
5011;DHT22;2524;54.364;10.072;2023-03-03T03:30:17;1.80;99.90
5011;DHT22;2524;54.364;10.072;2023-03-03T03:32:45;1.80;99.90
5011;DHT22;2524;54.364;10.072;2023-03-03T03:35:11;1.70;99.90
5011;DHT22;2524;54.364;10.072;2023-03-03T03:37:36;1.80;99.90
5011;DHT22;2524;54.364;10.072;2023-03-03T03:40:02;1.70;99.90
5011;DHT22;2524;54.364;10.072;2023-03-03T03:42:28;1.60;99.90
5011;DHT22;2524;54.364;10.072;2023-03-03T03:44:54;1.70;99.90
5011;DHT22;2524;54.364;10.072;2023-03-03T03:47:20;1.70;99.90
5011;DHT22;2524;54.364;10.072;2023-03-03T03:49:45;1.70;99.90
5011;DHT22;2524;54.364;10.072;2023-03-03T03:52:11;1.70;99.90
5011;DHT22;2524;54.364;10.072;2023-03-03T03:54:36;1.60;99.90
5011;DHT22;2524;54.364;10.072;2023-03-03T03:57:02;1.70;99.90
5011;DHT22;2524;54.364;10.072;2023-03-03T03:59:28;1.80;99.90
5011;DHT22;2524;54.364;10.072;2023-03-03T04:01:53;1.70;99.90
5011;DHT22;2524;54.364;10.072;2023-03-03T04:04:19;1.70;99.90
5011;DHT22;2524;54.364;10.072;2023-03-03T04:06:45;1.70;99.90
5011;DHT22;2524;54.364;10.072;2023-03-03T04:09:10;1.60;99.90
5011;DHT22;2524;54.364;10.072;2023-03-03T04:11:36;1.70;99.90
5011;DHT22;2524;54.364;10.072;2023-03-03T04:14:02;1.60;99.90
5011;DHT22;2524;54.364;10.072;2023-03-03T04:16:27;1.60;99.90
5011;DHT22;2524;54.364;10.072;2023-03-03T04:18:53;1.60;99.90
5011;DHT22;2524;54.364;10.072;2023-03-03T04:21:18;1.60;99.90
5011;DHT22;2524;54.364;10.072;2023-03-03T04:23:44;1.50;99.90
5011;DHT22;2524;54.364;10.072;2023-03-03T04:26:10;1.50;99.90
5011;DHT22;2524;54.364;10.072;2023-03-03T04:28:35;1.50;99.90
5011;DHT22;2524;54.364;10.072;2023-03-03T04:31:01;1.50;99.90
5011;DHT22;2524;54.364;10.072;2023-03-03T04:33:27;1.50;99.90
5011;DHT22;2524;54.364;10.072;2023-03-03T04:35:53;1.50;99.90
5011;DHT22;2524;54.364;10.072;2023-03-03T04:38:18;1.50;99.90
5011;DHT22;2524;54.364;10.072;2023-03-03T04:40:44;1.40;99.90
5011;DHT22;2524;54.364;10.072;2023-03-03T04:43:10;1.40;99.90
5011;DHT22;2524;54.364;10.072;2023-03-03T04:45:36;1.40;99.90
5011;DHT22;2524;54.364;10.072;2023-03-03T04:48:02;1.50;99.90
5011;DHT22;2524;54.364;10.072;2023-03-03T04:50:28;1.20;99.90
5011;DHT22;2524;54.364;10.072;2023-03-03T04:52:54;1.40;99.90
5011;DHT22;2524;54.364;10.072;2023-03-03T04:55:19;1.40;99.90
5011;DHT22;2524;54.364;10.072;2023-03-03T04:57:45;1.40;99.90
5011;DHT22;2524;54.364;10.072;2023-03-03T05:00:12;1.40;99.90
5011;DHT22;2524;54.364;10.072;2023-03-03T05:02:39;1.40;99.90
5011;DHT22;2524;54.364;10.072;2023-03-03T05:05:06;1.40;99.90
5011;DHT22;2524;54.364;10.072;2023-03-03T05:07:32;1.50;99.90
5011;DHT22;2524;54.364;10.072;2023-03-03T05:09:57;1.50;99.90
5011;DHT22;2524;54.364;10.072;2023-03-03T05:12:23;1.50;99.90
5011;DHT22;2524;54.364;10.072;2023-03-03T05:14:49;1.50;99.90
5011;DHT22;2524;54.364;10.072;2023-03-03T05:17:15;1.60;99.90
5011;DHT22;2524;54.364;10.072;2023-03-03T05:19:40;1.60;99.90
5011;DHT22;2524;54.364;10.072;2023-03-03T05:22:06;1.60;99.90
5011;DHT22;2524;54.364;10.072;2023-03-03T05:24:31;1.60;99.90
5011;DHT22;2524;54.364;10.072;2023-03-03T05:26:57;1.70;99.90
5011;DHT22;2524;54.364;10.072;2023-03-03T05:29:24;1.70;99.90
5011;DHT22;2524;54.364;10.072;2023-03-03T06:49:37;2.00;99.90
5011;DHT22;2524;54.364;10.072;2023-03-03T06:52:12;2.00;99.90
5011;DHT22;2524;54.364;10.072;2023-03-03T06:54:39;1.90;99.90
5011;DHT22;2524;54.364;10.072;2023-03-03T06:57:36;2.00;99.90
5011;DHT22;2524;54.364;10.072;2023-03-03T07:00:23;1.90;99.90
5011;DHT22;2524;54.364;10.072;2023-03-03T07:02:58;1.90;99.90
5011;DHT22;2524;54.364;10.072;2023-03-03T07:05:28;1.90;99.90
5011;DHT22;2524;54.364;10.072;2023-03-03T07:07:55;1.90;99.90
5011;DHT22;2524;54.364;10.072;2023-03-03T07:10:26;1.90;99.90
5011;DHT22;2524;54.364;10.072;2023-03-03T07:12:53;1.90;99.90
5011;DHT22;2524;54.364;10.072;2023-03-03T07:15:24;1.90;99.90
5011;DHT22;2524;54.364;10.072;2023-03-03T07:17:55;1.90;99.90
5011;DHT22;2524;54.364;10.072;2023-03-03T07:20:34;2.00;99.90
5011;DHT22;2524;54.364;10.072;2023-03-03T07:23:08;1.90;99.90
5011;DHT22;2524;54.364;10.072;2023-03-03T07:25:52;1.90;99.90
5011;DHT22;2524;54.364;10.072;2023-03-03T07:28:29;1.90;99.90
5011;DHT22;2524;54.364;10.072;2023-03-03T07:30:57;1.90;99.90
5011;DHT22;2524;54.364;10.072;2023-03-03T07:33:28;1.90;99.90
5011;DHT22;2524;54.364;10.072;2023-03-03T07:35:56;1.90;99.90
5011;DHT22;2524;54.364;10.072;2023-03-03T07:40:55;1.80;99.90
5011;DHT22;2524;54.364;10.072;2023-03-03T07:43:43;1.80;99.90
5011;DHT22;2524;54.364;10.072;2023-03-03T07:49:22;1.90;99.90
5011;DHT22;2524;54.364;10.072;2023-03-03T07:51:52;1.80;99.90
5011;DHT22;2524;54.364;10.072;2023-03-03T07:54:33;1.80;99.90
5011;DHT22;2524;54.364;10.072;2023-03-03T07:57:20;1.80;99.90
5011;DHT22;2524;54.364;10.072;2023-03-03T08:02:46;1.80;99.90
5011;DHT22;2524;54.364;10.072;2023-03-03T08:07:50;1.80;99.90
5011;DHT22;2524;54.364;10.072;2023-03-03T08:10:49;1.80;99.90
5011;DHT22;2524;54.364;10.072;2023-03-03T08:13:18;1.90;99.90
5011;DHT22;2524;54.364;10.072;2023-03-03T08:15:46;1.90;99.90
5011;DHT22;2524;54.364;10.072;2023-03-03T08:18:38;2.00;99.90
5011;DHT22;2524;54.364;10.072;2023-03-03T08:23:38;1.90;99.90
5011;DHT22;2524;54.364;10.072;2023-03-03T08:26:04;2.00;99.90
5011;DHT22;2524;54.364;10.072;2023-03-03T08:28:30;2.00;99.90
5011;DHT22;2524;54.364;10.072;2023-03-03T08:30:56;2.00;99.90
5011;DHT22;2524;54.364;10.072;2023-03-03T08:33:22;2.00;99.90
5011;DHT22;2524;54.364;10.072;2023-03-03T08:35:48;2.10;99.90
5011;DHT22;2524;54.364;10.072;2023-03-03T08:38:16;2.10;99.90
5011;DHT22;2524;54.364;10.072;2023-03-03T08:40:43;2.10;99.90
5011;DHT22;2524;54.364;10.072;2023-03-03T08:43:09;2.10;99.90
5011;DHT22;2524;54.364;10.072;2023-03-03T08:45:35;2.20;99.90
5011;DHT22;2524;54.364;10.072;2023-03-03T08:48:01;2.20;99.90
5011;DHT22;2524;54.364;10.072;2023-03-03T08:50:28;2.20;99.90
5011;DHT22;2524;54.364;10.072;2023-03-03T08:52:54;2.30;99.90
5011;DHT22;2524;54.364;10.072;2023-03-03T08:55:20;2.30;99.90
5011;DHT22;2524;54.364;10.072;2023-03-03T08:57:46;2.40;99.90
5011;DHT22;2524;54.364;10.072;2023-03-03T09:00:14;2.40;99.90
5011;DHT22;2524;54.364;10.072;2023-03-03T09:02:40;2.50;99.90
5011;DHT22;2524;54.364;10.072;2023-03-03T09:05:07;2.50;99.90
5011;DHT22;2524;54.364;10.072;2023-03-03T09:07:33;2.60;99.90
5011;DHT22;2524;54.364;10.072;2023-03-03T09:09:59;2.60;99.90
5011;DHT22;2524;54.364;10.072;2023-03-03T09:12:39;2.70;99.90
5011;DHT22;2524;54.364;10.072;2023-03-03T09:15:32;2.70;99.90
5011;DHT22;2524;54.364;10.072;2023-03-03T09:18:21;2.80;99.90
5011;DHT22;2524;54.364;10.072;2023-03-03T09:20:51;2.90;99.90
5011;DHT22;2524;54.364;10.072;2023-03-03T09:23:28;3.10;99.90
5011;DHT22;2524;54.364;10.072;2023-03-03T09:25:56;3.00;99.90
5011;DHT22;2524;54.364;10.072;2023-03-03T09:28:30;3.10;99.90
5011;DHT22;2524;54.364;10.072;2023-03-03T09:30:59;3.10;99.90
5011;DHT22;2524;54.364;10.072;2023-03-03T09:36:22;3.20;99.90
5011;DHT22;2524;54.364;10.072;2023-03-03T09:38:48;3.30;99.90
5011;DHT22;2524;54.364;10.072;2023-03-03T09:52:38;3.50;99.90
5011;DHT22;2524;54.364;10.072;2023-03-03T09:55:18;3.60;99.90
5011;DHT22;2524;54.364;10.072;2023-03-03T10:06:40;3.90;99.90
5011;DHT22;2524;54.364;10.072;2023-03-03T10:20:15;4.10;99.90
5011;DHT22;2524;54.364;10.072;2023-03-03T10:22:49;4.20;99.90
5011;DHT22;2524;54.364;10.072;2023-03-03T10:25:40;4.30;99.90
5011;DHT22;2524;54.364;10.072;2023-03-03T10:31:09;4.50;99.90
5011;DHT22;2524;54.364;10.072;2023-03-03T10:33:46;4.50;99.90
5011;DHT22;2524;54.364;10.072;2023-03-03T10:41:50;4.60;99.90
5011;DHT22;2524;54.364;10.072;2023-03-03T10:44:41;4.60;99.90
5011;DHT22;2524;54.364;10.072;2023-03-03T10:52:37;4.80;99.90
5011;DHT22;2524;54.364;10.072;2023-03-03T10:58:28;4.80;99.90
5011;DHT22;2524;54.364;10.072;2023-03-03T11:09:12;5.10;99.90
5011;DHT22;2524;54.364;10.072;2023-03-03T11:12:14;5.10;99.90
5011;DHT22;2524;54.364;10.072;2023-03-03T11:25:49;5.50;99.90
5011;DHT22;2524;54.364;10.072;2023-03-03T11:33:45;5.30;99.90
5011;DHT22;2524;54.364;10.072;2023-03-03T11:36:31;5.40;99.90
5011;DHT22;2524;54.364;10.072;2023-03-03T11:39:02;5.40;99.90
5011;DHT22;2524;54.364;10.072;2023-03-03T11:44:38;5.50;99.90
5011;DHT22;2524;54.364;10.072;2023-03-03T11:49:42;5.50;99.90
5011;DHT22;2524;54.364;10.072;2023-03-03T11:55:01;5.50;99.90
5011;DHT22;2524;54.364;10.072;2023-03-03T11:57:30;5.60;99.90
5011;DHT22;2524;54.364;10.072;2023-03-03T12:00:05;5.60;99.90
5011;DHT22;2524;54.364;10.072;2023-03-03T12:11:48;5.80;99.90
5011;DHT22;2524;54.364;10.072;2023-03-03T12:17:00;5.80;99.90
5011;DHT22;2524;54.364;10.072;2023-03-03T12:35:49;6.40;99.90
5011;DHT22;2524;54.364;10.072;2023-03-03T12:38:28;6.50;99.90
5011;DHT22;2524;54.364;10.072;2023-03-03T12:41:06;6.50;99.90
5011;DHT22;2524;54.364;10.072;2023-03-03T12:48:41;6.50;99.90
5011;DHT22;2524;54.364;10.072;2023-03-03T12:54:23;6.60;99.90
5011;DHT22;2524;54.364;10.072;2023-03-03T12:59:54;6.60;99.90
5011;DHT22;2524;54.364;10.072;2023-03-03T13:02:38;6.70;99.90
5011;DHT22;2524;54.364;10.072;2023-03-03T13:08:32;6.80;99.90
5011;DHT22;2524;54.364;10.072;2023-03-03T13:11:09;6.80;99.90
5011;DHT22;2524;54.364;10.072;2023-03-03T13:13:49;6.80;99.90
5011;DHT22;2524;54.364;10.072;2023-03-03T13:16:38;7.00;99.90
5011;DHT22;2524;54.364;10.072;2023-03-03T13:19:16;6.90;99.90
5011;DHT22;2524;54.364;10.072;2023-03-03T13:21:54;6.90;99.90
5011;DHT22;2524;54.364;10.072;2023-03-03T13:27:12;6.90;99.90
5011;DHT22;2524;54.364;10.072;2023-03-03T13:32:24;7.10;99.90
5011;DHT22;2524;54.364;10.072;2023-03-03T13:37:47;7.40;99.90
5011;DHT22;2524;54.364;10.072;2023-03-03T13:42:39;7.60;99.90
5011;DHT22;2524;54.364;10.072;2023-03-03T13:50:46;7.60;99.90
5011;DHT22;2524;54.364;10.072;2023-03-03T13:53:46;7.60;99.90
5011;DHT22;2524;54.364;10.072;2023-03-03T14:07:10;7.60;99.90
5011;DHT22;2524;54.364;10.072;2023-03-03T14:15:23;7.50;99.90
5011;DHT22;2524;54.364;10.072;2023-03-03T14:21:19;7.50;99.90
5011;DHT22;2524;54.364;10.072;2023-03-03T14:26:12;7.50;99.90
5011;DHT22;2524;54.364;10.072;2023-03-03T14:31:25;7.50;99.90
5011;DHT22;2524;54.364;10.072;2023-03-03T14:36:38;7.40;99.90
5011;DHT22;2524;54.364;10.072;2023-03-03T14:41:49;7.50;99.90
5011;DHT22;2524;54.364;10.072;2023-03-03T14:44:47;7.60;99.90
5011;DHT22;2524;54.364;10.072;2023-03-03T14:47:22;7.60;99.90
5011;DHT22;2524;54.364;10.072;2023-03-03T14:49:49;7.70;99.90
5011;DHT22;2524;54.364;10.072;2023-03-03T14:54:53;7.60;99.90
5011;DHT22;2524;54.364;10.072;2023-03-03T14:57:21;7.60;99.90
5011;DHT22;2524;54.364;10.072;2023-03-03T14:59:56;7.60;99.90
5011;DHT22;2524;54.364;10.072;2023-03-03T15:02:37;7.50;99.90
5011;DHT22;2524;54.364;10.072;2023-03-03T15:05:25;7.50;99.90
5011;DHT22;2524;54.364;10.072;2023-03-03T15:07:57;7.40;99.90
5011;DHT22;2524;54.364;10.072;2023-03-03T15:10:35;7.30;99.90
5011;DHT22;2524;54.364;10.072;2023-03-03T15:18:26;7.20;99.90
5011;DHT22;2524;54.364;10.072;2023-03-03T15:21:06;7.20;99.90
5011;DHT22;2524;54.364;10.072;2023-03-03T15:26:44;7.30;99.90
5011;DHT22;2524;54.364;10.072;2023-03-03T15:32:06;7.50;99.90
5011;DHT22;2524;54.364;10.072;2023-03-03T15:37:45;7.70;99.90
5011;DHT22;2524;54.364;10.072;2023-03-03T15:40:29;7.90;99.90
5011;DHT22;2524;54.364;10.072;2023-03-03T15:43:19;8.00;99.90
5011;DHT22;2524;54.364;10.072;2023-03-03T15:57:30;8.10;99.90
5011;DHT22;2524;54.364;10.072;2023-03-03T16:03:00;7.90;99.90
5011;DHT22;2524;54.364;10.072;2023-03-03T16:11:14;7.70;99.90
5011;DHT22;2524;54.364;10.072;2023-03-03T16:13:55;7.60;99.90
5011;DHT22;2524;54.364;10.072;2023-03-03T16:19:40;7.50;99.90
5011;DHT22;2524;54.364;10.072;2023-03-03T16:25:06;7.30;99.90
5011;DHT22;2524;54.364;10.072;2023-03-03T16:35:35;6.90;99.90
5011;DHT22;2524;54.364;10.072;2023-03-03T16:38:08;7.00;99.90
5011;DHT22;2524;54.364;10.072;2023-03-03T16:40:56;6.80;99.90
5011;DHT22;2524;54.364;10.072;2023-03-03T16:44:08;6.80;99.90
5011;DHT22;2524;54.364;10.072;2023-03-03T16:46:45;6.70;99.90
5011;DHT22;2524;54.364;10.072;2023-03-03T16:54:38;6.60;99.90
5011;DHT22;2524;54.364;10.072;2023-03-03T16:57:22;6.50;99.90
5011;DHT22;2524;54.364;10.072;2023-03-03T17:00:15;6.50;99.90
5011;DHT22;2524;54.364;10.072;2023-03-03T17:03:08;6.40;99.90
5011;DHT22;2524;54.364;10.072;2023-03-03T17:05:59;6.40;99.90
5011;DHT22;2524;54.364;10.072;2023-03-03T17:17:08;6.20;99.90
5011;DHT22;2524;54.364;10.072;2023-03-03T17:22:13;6.20;99.90
5011;DHT22;2524;54.364;10.072;2023-03-03T17:27:27;6.10;99.90
5011;DHT22;2524;54.364;10.072;2023-03-03T17:38:29;6.00;99.90
5011;DHT22;2524;54.364;10.072;2023-03-03T17:43:58;6.00;99.90
5011;DHT22;2524;54.364;10.072;2023-03-03T17:46:52;5.90;99.90
5011;DHT22;2524;54.364;10.072;2023-03-03T17:56:32;5.90;99.90
5011;DHT22;2524;54.364;10.072;2023-03-03T20:47:57;4.70;99.90
5011;DHT22;2524;54.364;10.072;2023-03-03T21:28:40;4.80;99.90
5011;DHT22;2524;54.364;10.072;2023-03-03T22:15:40;5.30;99.90
5011;DHT22;2524;54.364;10.072;2023-03-03T22:18:13;5.60;99.90
5011;DHT22;2524;54.364;10.072;2023-03-03T22:20:38;5.50;99.90
5011;DHT22;2524;54.364;10.072;2023-03-03T22:23:04;5.50;99.90
5011;DHT22;2524;54.364;10.072;2023-03-03T22:25:30;5.50;99.90
5011;DHT22;2524;54.364;10.072;2023-03-03T22:27:55;5.60;99.90
5011;DHT22;2524;54.364;10.072;2023-03-03T22:30:21;5.60;99.90
5011;DHT22;2524;54.364;10.072;2023-03-03T22:32:47;5.80;99.90
5011;DHT22;2524;54.364;10.072;2023-03-03T22:35:16;5.70;99.90
5011;DHT22;2524;54.364;10.072;2023-03-03T22:37:43;5.70;99.90
5011;DHT22;2524;54.364;10.072;2023-03-03T22:40:09;5.70;99.90
5011;DHT22;2524;54.364;10.072;2023-03-03T22:42:35;5.80;99.90
5011;DHT22;2524;54.364;10.072;2023-03-03T22:45:00;5.80;99.90
5011;DHT22;2524;54.364;10.072;2023-03-03T22:47:26;5.80;99.90
5011;DHT22;2524;54.364;10.072;2023-03-03T22:49:52;5.90;99.90
5011;DHT22;2524;54.364;10.072;2023-03-03T22:52:17;6.00;99.90
5011;DHT22;2524;54.364;10.072;2023-03-03T22:54:43;6.00;99.90
5011;DHT22;2524;54.364;10.072;2023-03-03T22:57:08;6.00;99.90
5011;DHT22;2524;54.364;10.072;2023-03-03T22:59:34;5.90;99.90
5011;DHT22;2524;54.364;10.072;2023-03-03T23:01:59;6.10;99.90
5011;DHT22;2524;54.364;10.072;2023-03-03T23:04:25;6.10;99.90
5011;DHT22;2524;54.364;10.072;2023-03-03T23:06:51;6.10;99.90
5011;DHT22;2524;54.364;10.072;2023-03-03T23:09:16;6.10;99.90
5011;DHT22;2524;54.364;10.072;2023-03-03T23:11:42;6.10;99.90
5011;DHT22;2524;54.364;10.072;2023-03-03T23:14:07;6.00;99.90
5011;DHT22;2524;54.364;10.072;2023-03-03T23:16:33;6.10;99.90
5011;DHT22;2524;54.364;10.072;2023-03-03T23:18:58;6.10;99.90
5011;DHT22;2524;54.364;10.072;2023-03-03T23:21:24;6.10;99.90
5011;DHT22;2524;54.364;10.072;2023-03-03T23:23:50;6.10;99.90
5011;DHT22;2524;54.364;10.072;2023-03-03T23:26:15;6.20;99.90
5011;DHT22;2524;54.364;10.072;2023-03-03T23:28:41;6.10;99.90
5011;DHT22;2524;54.364;10.072;2023-03-03T23:31:06;6.10;99.90
5011;DHT22;2524;54.364;10.072;2023-03-03T23:33:32;6.10;99.90
5011;DHT22;2524;54.364;10.072;2023-03-03T23:35:59;6.20;99.90
5011;DHT22;2524;54.364;10.072;2023-03-03T23:38:25;6.20;99.90
5011;DHT22;2524;54.364;10.072;2023-03-03T23:40:50;6.20;99.90
5011;DHT22;2524;54.364;10.072;2023-03-03T23:43:16;6.30;99.90
5011;DHT22;2524;54.364;10.072;2023-03-03T23:45:42;6.20;99.90
5011;DHT22;2524;54.364;10.072;2023-03-03T23:48:08;6.20;99.90
5011;DHT22;2524;54.364;10.072;2023-03-03T23:50:33;6.20;99.90
5011;DHT22;2524;54.364;10.072;2023-03-03T23:53:03;6.30;99.90
5011;DHT22;2524;54.364;10.072;2023-03-03T23:55:28;6.20;99.90
5011;DHT22;2524;54.364;10.072;2023-03-03T23:57:54;6.40;99.90
